createdAt,value
2023-08-31T00:00:40.000Z,1011.37
2023-08-31T00:01:39.000Z,1011.38
2023-08-31T00:02:40.000Z,1011.36
2023-08-31T00:03:39.000Z,1011.38
2023-08-31T00:04:39.000Z,1011.38
2023-08-31T00:05:41.000Z,1011.42
2023-08-31T00:06:42.000Z,1011.40
2023-08-31T00:07:39.000Z,1011.42
2023-08-31T00:08:39.000Z,1011.42
2023-08-31T00:09:40.000Z,1011.43
2023-08-31T00:10:40.000Z,1011.45
2023-08-31T00:11:40.000Z,1011.41
2023-08-31T00:12:40.000Z,1011.47
2023-08-31T00:13:39.000Z,1011.48
2023-08-31T00:14:39.000Z,1011.43
2023-08-31T00:15:41.000Z,1011.43
2023-08-31T00:16:40.000Z,1011.43
2023-08-31T00:17:39.000Z,1011.42
2023-08-31T00:18:40.000Z,1011.44
2023-08-31T00:19:39.000Z,1011.42
2023-08-31T00:20:39.000Z,1011.43
2023-08-31T00:21:39.000Z,1011.42
2023-08-31T00:22:39.000Z,1011.43
2023-08-31T00:23:39.000Z,1011.41
2023-08-31T00:24:39.000Z,1011.43
2023-08-31T00:25:39.000Z,1011.46
2023-08-31T00:26:40.000Z,1011.44
2023-08-31T00:27:40.000Z,1011.45
2023-08-31T00:28:40.000Z,1011.43
2023-08-31T00:29:39.000Z,1011.41
2023-08-31T00:30:39.000Z,1011.41
2023-08-31T00:31:39.000Z,1011.40
2023-08-31T00:32:42.000Z,1011.41
2023-08-31T00:33:40.000Z,1011.38
2023-08-31T00:34:39.000Z,1011.36
2023-08-31T00:35:44.000Z,1011.36
2023-08-31T00:36:40.000Z,1011.37
2023-08-31T00:37:39.000Z,1011.38
2023-08-31T00:38:39.000Z,1011.39
2023-08-31T00:39:39.000Z,1011.40
2023-08-31T00:40:44.000Z,1011.41
2023-08-31T00:41:40.000Z,1011.42
2023-08-31T00:42:40.000Z,1011.42
2023-08-31T00:43:40.000Z,1011.47
2023-08-31T00:44:39.000Z,1011.45
2023-08-31T00:45:40.000Z,1011.46
2023-08-31T00:46:40.000Z,1011.49
2023-08-31T00:47:39.000Z,1011.47
2023-08-31T00:48:40.000Z,1011.47
2023-08-31T00:49:40.000Z,1011.47
2023-08-31T00:50:40.000Z,1011.46
2023-08-31T00:51:40.000Z,1011.50
2023-08-31T00:52:41.000Z,1011.50
2023-08-31T00:53:39.000Z,1011.51
2023-08-31T00:54:42.000Z,1011.49
2023-08-31T00:55:44.000Z,1011.54
2023-08-31T00:56:39.000Z,1011.53
2023-08-31T00:57:41.000Z,1011.53
2023-08-31T00:58:40.000Z,1011.57
2023-08-31T00:59:39.000Z,1011.55
2023-08-31T01:00:52.000Z,1011.58
2023-08-31T01:01:44.000Z,1011.57
2023-08-31T01:02:57.000Z,1011.59
2023-08-31T01:03:50.000Z,1011.61
2023-08-31T01:05:00.000Z,1011.59
2023-08-31T01:05:48.000Z,1011.63
2023-08-31T01:07:14.000Z,1011.61
2023-08-31T01:07:51.000Z,1011.60
2023-08-31T01:08:52.000Z,1011.63
2023-08-31T01:09:49.000Z,1011.63
2023-08-31T01:10:50.000Z,1011.62
2023-08-31T01:11:57.000Z,1011.59
2023-08-31T01:12:48.000Z,1011.60
2023-08-31T01:13:44.000Z,1011.62
2023-08-31T01:14:47.000Z,1011.64
2023-08-31T01:15:44.000Z,1011.61
2023-08-31T01:16:43.000Z,1011.65
2023-08-31T01:17:47.000Z,1011.66
2023-08-31T01:18:40.000Z,1011.67
2023-08-31T01:19:49.000Z,1011.62
2023-08-31T01:20:48.000Z,1011.65
2023-08-31T01:21:44.000Z,1011.63
2023-08-31T01:22:51.000Z,1011.66
2023-08-31T01:23:50.000Z,1011.63
2023-08-31T01:24:40.000Z,1011.63
2023-08-31T01:25:43.000Z,1011.66
2023-08-31T01:26:41.000Z,1011.65
2023-08-31T01:27:40.000Z,1011.71
2023-08-31T01:28:40.000Z,1011.73
2023-08-31T01:29:39.000Z,1011.72
2023-08-31T01:30:40.000Z,1011.70
2023-08-31T01:31:42.000Z,1011.76
2023-08-31T01:32:44.000Z,1011.79
2023-08-31T01:33:39.000Z,1011.77
2023-08-31T01:34:39.000Z,1011.77
2023-08-31T01:35:47.000Z,1011.81
2023-08-31T01:36:45.000Z,1011.81
2023-08-31T01:38:01.000Z,1011.83
2023-08-31T01:38:44.000Z,1011.84
2023-08-31T01:39:51.000Z,1011.83
2023-08-31T01:41:04.000Z,1011.84
2023-08-31T01:41:45.000Z,1011.80
2023-08-31T01:42:42.000Z,1011.83
2023-08-31T01:43:40.000Z,1011.82
2023-08-31T01:44:41.000Z,1011.84
2023-08-31T01:45:40.000Z,1011.84
2023-08-31T01:46:40.000Z,1011.86
2023-08-31T01:47:39.000Z,1011.86
2023-08-31T01:48:40.000Z,1011.86
2023-08-31T01:49:39.000Z,1011.88
2023-08-31T01:50:39.000Z,1011.92
2023-08-31T01:51:39.000Z,1011.89
2023-08-31T01:52:39.000Z,1011.92
2023-08-31T01:53:39.000Z,1011.92
2023-08-31T01:54:39.000Z,1011.93
2023-08-31T01:55:39.000Z,1011.91
2023-08-31T01:56:39.000Z,1011.90
2023-08-31T01:57:39.000Z,1011.92
2023-08-31T01:58:39.000Z,1011.94
2023-08-31T01:59:39.000Z,1011.95
2023-08-31T02:00:38.000Z,1011.93
2023-08-31T02:01:38.000Z,1011.97
2023-08-31T02:02:39.000Z,1011.97
2023-08-31T02:03:38.000Z,1011.99
2023-08-31T02:04:39.000Z,1011.99
2023-08-31T02:05:38.000Z,1011.93
2023-08-31T02:06:38.000Z,1011.96
2023-08-31T02:07:39.000Z,1011.93
2023-08-31T02:08:38.000Z,1011.95
2023-08-31T02:09:38.000Z,1011.94
2023-08-31T02:10:38.000Z,1011.94
2023-08-31T02:11:39.000Z,1011.93
2023-08-31T02:12:39.000Z,1011.95
2023-08-31T02:13:39.000Z,1011.99
2023-08-31T02:14:39.000Z,1011.99
2023-08-31T02:15:38.000Z,1012.00
2023-08-31T02:16:38.000Z,1011.99
2023-08-31T02:17:39.000Z,1011.97
2023-08-31T02:18:38.000Z,1012.03
2023-08-31T02:19:38.000Z,1011.99
2023-08-31T02:20:38.000Z,1012.04
2023-08-31T02:21:38.000Z,1011.99
2023-08-31T02:22:39.000Z,1011.99
2023-08-31T02:23:38.000Z,1012.07
2023-08-31T02:24:38.000Z,1011.99
2023-08-31T02:25:38.000Z,1012.03
2023-08-31T02:26:38.000Z,1012.11
2023-08-31T02:27:38.000Z,1012.07
2023-08-31T02:28:39.000Z,1012.14
2023-08-31T02:29:39.000Z,1012.16
2023-08-31T02:30:38.000Z,1012.16
2023-08-31T02:31:39.000Z,1012.18
2023-08-31T02:32:38.000Z,1012.22
2023-08-31T02:33:39.000Z,1012.19
2023-08-31T02:34:39.000Z,1012.17
2023-08-31T02:35:39.000Z,1012.16
2023-08-31T02:36:38.000Z,1012.15
2023-08-31T02:37:39.000Z,1012.15
2023-08-31T02:38:38.000Z,1012.17
2023-08-31T02:39:39.000Z,1012.17
2023-08-31T02:40:38.000Z,1012.19
2023-08-31T02:41:39.000Z,1012.20
2023-08-31T02:42:38.000Z,1012.17
2023-08-31T02:43:39.000Z,1012.18
2023-08-31T02:44:38.000Z,1012.19
2023-08-31T02:45:39.000Z,1012.22
2023-08-31T02:46:38.000Z,1012.18
2023-08-31T02:47:38.000Z,1012.20
2023-08-31T02:48:38.000Z,1012.23
2023-08-31T02:49:39.000Z,1012.25
2023-08-31T02:50:38.000Z,1012.26
2023-08-31T02:51:38.000Z,1012.23
2023-08-31T02:52:39.000Z,1012.26
2023-08-31T02:53:38.000Z,1012.23
2023-08-31T02:54:39.000Z,1012.26
2023-08-31T02:55:41.000Z,1012.23
2023-08-31T02:56:38.000Z,1012.24
2023-08-31T02:57:38.000Z,1012.23
2023-08-31T02:58:39.000Z,1012.24
2023-08-31T02:59:39.000Z,1012.24
2023-08-31T03:00:42.000Z,1012.22
2023-08-31T03:01:39.000Z,1012.23
2023-08-31T03:02:39.000Z,1012.24
2023-08-31T03:03:40.000Z,1012.26
2023-08-31T03:04:39.000Z,1012.27
2023-08-31T03:05:39.000Z,1012.28
2023-08-31T03:06:39.000Z,1012.26
2023-08-31T03:07:39.000Z,1012.27
2023-08-31T03:08:39.000Z,1012.28
2023-08-31T03:09:39.000Z,1012.31
2023-08-31T03:10:40.000Z,1012.31
2023-08-31T03:11:39.000Z,1012.34
2023-08-31T03:12:39.000Z,1012.33
2023-08-31T03:13:39.000Z,1012.34
2023-08-31T03:14:40.000Z,1012.32
2023-08-31T03:15:40.000Z,1012.35
2023-08-31T03:16:39.000Z,1012.37
2023-08-31T03:17:39.000Z,1012.39
2023-08-31T03:18:39.000Z,1012.40
2023-08-31T03:19:41.000Z,1012.41
2023-08-31T03:20:39.000Z,1012.39
2023-08-31T03:21:40.000Z,1012.39
2023-08-31T03:22:39.000Z,1012.40
2023-08-31T03:23:39.000Z,1012.43
2023-08-31T03:24:39.000Z,1012.41
2023-08-31T03:25:39.000Z,1012.43
2023-08-31T03:26:39.000Z,1012.43
2023-08-31T03:27:39.000Z,1012.45
2023-08-31T03:28:40.000Z,1012.47
2023-08-31T03:29:40.000Z,1012.49
2023-08-31T03:30:39.000Z,1012.49
2023-08-31T03:31:39.000Z,1012.53
2023-08-31T03:32:39.000Z,1012.52
2023-08-31T03:33:39.000Z,1012.50
2023-08-31T03:34:39.000Z,1012.53
2023-08-31T03:35:39.000Z,1012.51
2023-08-31T03:36:40.000Z,1012.55
2023-08-31T03:37:39.000Z,1012.51
2023-08-31T03:38:40.000Z,1012.51
2023-08-31T03:39:41.000Z,1012.53
2023-08-31T03:40:39.000Z,1012.53
2023-08-31T03:41:39.000Z,1012.53
2023-08-31T03:42:39.000Z,1012.50
2023-08-31T03:43:39.000Z,1012.53
2023-08-31T03:44:39.000Z,1012.50
2023-08-31T03:45:39.000Z,1012.49
2023-08-31T03:46:39.000Z,1012.51
2023-08-31T03:47:39.000Z,1012.51
2023-08-31T03:48:39.000Z,1012.50
2023-08-31T03:49:39.000Z,1012.49
2023-08-31T03:50:39.000Z,1012.49
2023-08-31T03:51:39.000Z,1012.54
2023-08-31T03:52:39.000Z,1012.53
2023-08-31T03:53:39.000Z,1012.53
2023-08-31T03:54:39.000Z,1012.57
2023-08-31T03:55:39.000Z,1012.54
2023-08-31T03:56:39.000Z,1012.56
2023-08-31T03:57:39.000Z,1012.60
2023-08-31T03:58:39.000Z,1012.58
2023-08-31T03:59:39.000Z,1012.58
2023-08-31T04:00:39.000Z,1012.60
2023-08-31T04:01:39.000Z,1012.61
2023-08-31T04:02:41.000Z,1012.60
2023-08-31T04:03:40.000Z,1012.63
2023-08-31T04:04:39.000Z,1012.67
2023-08-31T04:05:39.000Z,1012.65
2023-08-31T04:06:39.000Z,1012.68
2023-08-31T04:07:39.000Z,1012.69
2023-08-31T04:08:39.000Z,1012.67
2023-08-31T04:09:39.000Z,1012.68
2023-08-31T04:10:39.000Z,1012.63
2023-08-31T04:11:39.000Z,1012.64
2023-08-31T04:12:39.000Z,1012.66
2023-08-31T04:13:39.000Z,1012.70
2023-08-31T04:14:39.000Z,1012.71
2023-08-31T04:15:39.000Z,1012.72
2023-08-31T04:16:39.000Z,1012.72
2023-08-31T04:17:39.000Z,1012.75
2023-08-31T04:18:39.000Z,1012.78
2023-08-31T04:19:38.000Z,1012.78
2023-08-31T04:20:48.000Z,1012.78
2023-08-31T04:21:38.000Z,1012.80
2023-08-31T04:22:39.000Z,1012.81
2023-08-31T04:23:39.000Z,1012.85
2023-08-31T04:24:39.000Z,1012.86
2023-08-31T04:25:39.000Z,1012.88
2023-08-31T04:26:39.000Z,1012.87
2023-08-31T04:27:39.000Z,1012.90
2023-08-31T04:28:39.000Z,1012.92
2023-08-31T04:29:39.000Z,1012.93
2023-08-31T04:30:39.000Z,1013.00
2023-08-31T04:31:39.000Z,1012.98
2023-08-31T04:32:39.000Z,1012.96
2023-08-31T04:33:40.000Z,1013.02
2023-08-31T04:34:39.000Z,1013.02
2023-08-31T04:35:39.000Z,1013.07
2023-08-31T04:36:39.000Z,1013.01
2023-08-31T04:37:39.000Z,1013.07
2023-08-31T04:38:39.000Z,1013.04
2023-08-31T04:39:39.000Z,1013.06
2023-08-31T04:40:39.000Z,1013.01
2023-08-31T04:41:39.000Z,1013.04
2023-08-31T04:42:40.000Z,1013.02
2023-08-31T04:43:39.000Z,1013.01
2023-08-31T04:44:39.000Z,1013.04
2023-08-31T04:45:39.000Z,1013.01
2023-08-31T04:46:39.000Z,1012.99
2023-08-31T04:47:39.000Z,1013.00
2023-08-31T04:48:39.000Z,1013.00
2023-08-31T04:49:39.000Z,1013.04
2023-08-31T04:50:39.000Z,1013.03
2023-08-31T04:51:43.000Z,1013.02
2023-08-31T04:52:39.000Z,1013.00
2023-08-31T04:53:39.000Z,1013.06
2023-08-31T04:54:39.000Z,1013.05
2023-08-31T04:55:39.000Z,1013.07
2023-08-31T04:56:39.000Z,1013.05
2023-08-31T04:57:39.000Z,1013.06
2023-08-31T04:58:39.000Z,1013.10
2023-08-31T04:59:39.000Z,1013.08
2023-08-31T05:00:39.000Z,1013.08
2023-08-31T05:01:39.000Z,1013.09
2023-08-31T05:02:39.000Z,1013.10
2023-08-31T05:03:38.000Z,1013.14
2023-08-31T05:04:39.000Z,1013.12
2023-08-31T05:05:39.000Z,1013.11
2023-08-31T05:06:38.000Z,1013.17
2023-08-31T05:07:38.000Z,1013.16
2023-08-31T05:08:38.000Z,1013.17
2023-08-31T05:09:39.000Z,1013.17
2023-08-31T05:10:38.000Z,1013.19
2023-08-31T05:11:38.000Z,1013.20
2023-08-31T05:12:38.000Z,1013.23
2023-08-31T05:13:41.000Z,1013.22
2023-08-31T05:14:39.000Z,1013.22
2023-08-31T05:15:38.000Z,1013.26
2023-08-31T05:16:38.000Z,1013.27
2023-08-31T05:17:38.000Z,1013.26
2023-08-31T05:18:41.000Z,1013.26
2023-08-31T05:19:38.000Z,1013.26
2023-08-31T05:20:43.000Z,1013.24
2023-08-31T05:21:38.000Z,1013.28
2023-08-31T05:22:38.000Z,1013.36
2023-08-31T05:23:38.000Z,1013.41
2023-08-31T05:24:38.000Z,1013.40
2023-08-31T05:25:42.000Z,1013.40
2023-08-31T05:26:39.000Z,1013.39
2023-08-31T05:27:39.000Z,1013.42
2023-08-31T05:28:38.000Z,1013.43
2023-08-31T05:29:38.000Z,1013.44
2023-08-31T05:30:48.000Z,1013.44
2023-08-31T05:31:38.000Z,1013.48
2023-08-31T05:32:38.000Z,1013.52
2023-08-31T05:33:38.000Z,1013.50
2023-08-31T05:34:39.000Z,1013.53
2023-08-31T05:35:39.000Z,1013.56
2023-08-31T05:36:38.000Z,1013.57
2023-08-31T05:37:39.000Z,1013.59
2023-08-31T05:38:38.000Z,1013.60
2023-08-31T05:39:39.000Z,1013.57
2023-08-31T05:40:39.000Z,1013.59
2023-08-31T05:41:42.000Z,1013.62
2023-08-31T05:42:39.000Z,1013.62
2023-08-31T05:43:39.000Z,1013.64
2023-08-31T05:44:38.000Z,1013.69
2023-08-31T05:45:38.000Z,1013.65
2023-08-31T05:46:40.000Z,1013.68
2023-08-31T05:47:40.000Z,1013.65
2023-08-31T05:48:39.000Z,1013.71
2023-08-31T05:49:38.000Z,1013.71
2023-08-31T05:50:39.000Z,1013.73
2023-08-31T05:51:39.000Z,1013.74
2023-08-31T05:52:43.000Z,1013.70
2023-08-31T05:53:38.000Z,1013.70
2023-08-31T05:54:39.000Z,1013.69
2023-08-31T05:55:39.000Z,1013.72
2023-08-31T05:56:40.000Z,1013.69
2023-08-31T05:57:39.000Z,1013.70
2023-08-31T05:58:39.000Z,1013.73
2023-08-31T05:59:39.000Z,1013.73
2023-08-31T06:00:39.000Z,1013.73
2023-08-31T06:01:39.000Z,1013.72
2023-08-31T06:02:39.000Z,1013.76
2023-08-31T06:03:38.000Z,1013.72
2023-08-31T06:04:39.000Z,1013.77
2023-08-31T06:05:38.000Z,1013.73
2023-08-31T06:06:38.000Z,1013.75
2023-08-31T06:07:39.000Z,1013.72
2023-08-31T06:08:39.000Z,1013.71
2023-08-31T06:09:38.000Z,1013.69
2023-08-31T06:10:39.000Z,1013.67
2023-08-31T06:11:39.000Z,1013.67
2023-08-31T06:12:38.000Z,1013.68
2023-08-31T06:13:39.000Z,1013.69
2023-08-31T06:14:39.000Z,1013.72
2023-08-31T06:15:39.000Z,1013.70
2023-08-31T06:16:38.000Z,1013.76
2023-08-31T06:17:39.000Z,1013.76
2023-08-31T06:18:38.000Z,1013.76
2023-08-31T06:19:39.000Z,1013.75
2023-08-31T06:20:39.000Z,1013.73
2023-08-31T06:21:38.000Z,1013.80
2023-08-31T06:22:38.000Z,1013.80
2023-08-31T06:23:39.000Z,1013.88
2023-08-31T06:24:39.000Z,1013.87
2023-08-31T06:25:39.000Z,1013.92
2023-08-31T06:26:39.000Z,1013.94
2023-08-31T06:27:39.000Z,1013.92
2023-08-31T06:28:39.000Z,1014.00
2023-08-31T06:29:38.000Z,1014.01
2023-08-31T06:30:40.000Z,1014.04
2023-08-31T06:31:38.000Z,1014.07
2023-08-31T06:32:38.000Z,1014.05
2023-08-31T06:33:39.000Z,1014.07
2023-08-31T06:34:38.000Z,1014.08
2023-08-31T06:35:39.000Z,1014.10
2023-08-31T06:36:38.000Z,1014.08
2023-08-31T06:37:39.000Z,1014.04
2023-08-31T06:38:38.000Z,1014.06
2023-08-31T06:39:40.000Z,1014.05
2023-08-31T06:40:41.000Z,1014.03
2023-08-31T06:41:38.000Z,1014.06
2023-08-31T06:42:39.000Z,1014.06
2023-08-31T06:43:38.000Z,1014.05
2023-08-31T06:44:38.000Z,1014.07
2023-08-31T06:45:39.000Z,1014.04
2023-08-31T06:46:39.000Z,1014.03
2023-08-31T06:47:38.000Z,1014.05
2023-08-31T06:48:38.000Z,1014.07
2023-08-31T06:49:38.000Z,1014.02
2023-08-31T06:50:38.000Z,1014.10
2023-08-31T06:51:38.000Z,1014.05
2023-08-31T06:52:40.000Z,1014.07
2023-08-31T06:53:39.000Z,1014.14
2023-08-31T06:54:38.000Z,1014.12
2023-08-31T06:55:38.000Z,1014.16
2023-08-31T06:56:39.000Z,1014.13
2023-08-31T06:57:39.000Z,1014.18
2023-08-31T06:58:38.000Z,1014.15
2023-08-31T06:59:39.000Z,1014.14
2023-08-31T07:00:38.000Z,1014.13
2023-08-31T07:01:38.000Z,1014.11
2023-08-31T07:02:39.000Z,1014.15
2023-08-31T07:03:38.000Z,1014.17
2023-08-31T07:04:38.000Z,1014.18
2023-08-31T07:05:42.000Z,1014.20
2023-08-31T07:06:39.000Z,1014.20
2023-08-31T07:07:38.000Z,1014.21
2023-08-31T07:08:40.000Z,1014.21
2023-08-31T07:09:41.000Z,1014.24
2023-08-31T07:10:39.000Z,1014.25
2023-08-31T07:11:39.000Z,1014.28
2023-08-31T07:12:38.000Z,1014.28
2023-08-31T07:13:39.000Z,1014.30
2023-08-31T07:14:38.000Z,1014.25
2023-08-31T07:15:40.000Z,1014.29
2023-08-31T07:16:38.000Z,1014.31
2023-08-31T07:17:39.000Z,1014.28
2023-08-31T07:18:39.000Z,1014.30
2023-08-31T07:19:39.000Z,1014.30
2023-08-31T07:20:38.000Z,1014.30
2023-08-31T07:21:38.000Z,1014.31
2023-08-31T07:22:40.000Z,1014.26
2023-08-31T07:23:38.000Z,1014.34
2023-08-31T07:24:39.000Z,1014.33
2023-08-31T07:25:39.000Z,1014.35
2023-08-31T07:26:38.000Z,1014.39
2023-08-31T07:27:39.000Z,1014.38
2023-08-31T07:28:39.000Z,1014.37
2023-08-31T07:29:39.000Z,1014.37
2023-08-31T07:30:38.000Z,1014.35
2023-08-31T07:31:39.000Z,1014.38
2023-08-31T07:32:39.000Z,1014.37
2023-08-31T07:33:39.000Z,1014.37
2023-08-31T07:34:39.000Z,1014.39
2023-08-31T07:35:38.000Z,1014.39
2023-08-31T07:36:39.000Z,1014.42
2023-08-31T07:37:38.000Z,1014.43
2023-08-31T07:38:38.000Z,1014.43
2023-08-31T07:39:39.000Z,1014.39
2023-08-31T07:40:39.000Z,1014.43
2023-08-31T07:41:38.000Z,1014.48
2023-08-31T07:42:38.000Z,1014.47
2023-08-31T07:43:38.000Z,1014.43
2023-08-31T07:44:40.000Z,1014.41
2023-08-31T07:45:38.000Z,1014.38
2023-08-31T07:46:38.000Z,1014.44
2023-08-31T07:47:38.000Z,1014.43
2023-08-31T07:48:38.000Z,1014.42
2023-08-31T07:49:39.000Z,1014.45
2023-08-31T07:50:42.000Z,1014.42
2023-08-31T07:51:39.000Z,1014.43
2023-08-31T07:52:38.000Z,1014.44
2023-08-31T07:53:38.000Z,1014.49
2023-08-31T07:54:38.000Z,1014.49
2023-08-31T07:55:39.000Z,1014.47
2023-08-31T07:56:41.000Z,1014.53
2023-08-31T07:57:38.000Z,1014.53
2023-08-31T07:58:38.000Z,1014.55
2023-08-31T07:59:39.000Z,1014.56
2023-08-31T08:00:38.000Z,1014.60
2023-08-31T08:01:40.000Z,1014.58
2023-08-31T08:02:38.000Z,1014.57
2023-08-31T08:03:38.000Z,1014.62
2023-08-31T08:04:38.000Z,1014.65
2023-08-31T08:05:38.000Z,1014.63
2023-08-31T08:06:39.000Z,1014.65
2023-08-31T08:07:41.000Z,1014.64
2023-08-31T08:08:38.000Z,1014.68
2023-08-31T08:09:39.000Z,1014.71
2023-08-31T08:10:39.000Z,1014.70
2023-08-31T08:11:39.000Z,1014.69
2023-08-31T08:12:42.000Z,1014.74
2023-08-31T08:13:38.000Z,1014.73
2023-08-31T08:14:38.000Z,1014.73
2023-08-31T08:15:39.000Z,1014.76
2023-08-31T08:16:38.000Z,1014.78
2023-08-31T08:17:39.000Z,1014.78
2023-08-31T08:18:39.000Z,1014.77
2023-08-31T08:19:39.000Z,1014.78
2023-08-31T08:20:38.000Z,1014.76
2023-08-31T08:21:38.000Z,1014.79
2023-08-31T08:22:39.000Z,1014.77
2023-08-31T08:23:38.000Z,1014.79
2023-08-31T08:24:38.000Z,1014.84
2023-08-31T08:25:38.000Z,1014.83
2023-08-31T08:26:38.000Z,1014.80
2023-08-31T08:27:38.000Z,1014.84
2023-08-31T08:28:38.000Z,1014.89
2023-08-31T08:29:38.000Z,1014.87
2023-08-31T08:30:38.000Z,1014.85
2023-08-31T08:31:39.000Z,1014.89
2023-08-31T08:32:39.000Z,1014.86
2023-08-31T08:33:39.000Z,1014.83
2023-08-31T08:34:39.000Z,1014.88
2023-08-31T08:35:39.000Z,1014.88
2023-08-31T08:36:38.000Z,1014.86
2023-08-31T08:37:39.000Z,1014.85
2023-08-31T08:38:38.000Z,1014.85
2023-08-31T08:39:39.000Z,1014.88
2023-08-31T08:40:38.000Z,1014.86
2023-08-31T08:41:39.000Z,1014.84
2023-08-31T08:42:41.000Z,1014.85
2023-08-31T08:43:42.000Z,1014.85
2023-08-31T08:44:39.000Z,1014.86
2023-08-31T08:45:42.000Z,1014.91
2023-08-31T08:46:39.000Z,1014.88
2023-08-31T08:47:39.000Z,1014.89
2023-08-31T08:48:40.000Z,1014.89
2023-08-31T08:49:39.000Z,1014.90
2023-08-31T08:50:39.000Z,1014.89
2023-08-31T08:51:39.000Z,1014.90
2023-08-31T08:52:39.000Z,1014.88
2023-08-31T08:53:42.000Z,1014.88
2023-08-31T08:54:39.000Z,1014.83
2023-08-31T08:55:40.000Z,1014.86
2023-08-31T08:56:39.000Z,1014.90
2023-08-31T08:57:39.000Z,1014.90
2023-08-31T08:58:39.000Z,1014.85
2023-08-31T08:59:39.000Z,1014.84
2023-08-31T09:00:41.000Z,1014.85
2023-08-31T09:01:39.000Z,1014.85
2023-08-31T09:02:39.000Z,1014.86
2023-08-31T09:03:39.000Z,1014.88
2023-08-31T09:04:38.000Z,1014.92
2023-08-31T09:05:39.000Z,1014.92
2023-08-31T09:06:39.000Z,1014.91
2023-08-31T09:07:59.000Z,1014.91
2023-08-31T09:08:40.000Z,1014.93
2023-08-31T09:09:48.000Z,1014.94
2023-08-31T09:10:40.000Z,1014.92
2023-08-31T09:11:38.000Z,1014.90
2023-08-31T09:12:39.000Z,1014.93
2023-08-31T09:13:39.000Z,1014.91
2023-08-31T09:14:38.000Z,1014.93
2023-08-31T09:15:45.000Z,1014.90
2023-08-31T09:16:46.000Z,1014.93
2023-08-31T09:17:42.000Z,1014.92
2023-08-31T09:18:38.000Z,1014.91
2023-08-31T09:19:38.000Z,1014.95
2023-08-31T09:20:45.000Z,1014.95
2023-08-31T09:21:41.000Z,1014.93
2023-08-31T09:22:42.000Z,1014.92
2023-08-31T09:23:38.000Z,1014.94
2023-08-31T09:24:40.000Z,1014.93
2023-08-31T09:25:46.000Z,1014.97
2023-08-31T09:26:44.000Z,1014.96
2023-08-31T09:27:40.000Z,1014.96
2023-08-31T09:28:40.000Z,1014.94
2023-08-31T09:29:44.000Z,1014.96
2023-08-31T09:30:40.000Z,1014.95
2023-08-31T09:31:45.000Z,1014.93
2023-08-31T09:32:40.000Z,1014.97
2023-08-31T09:33:49.000Z,1014.92
2023-08-31T09:34:38.000Z,1014.92
2023-08-31T09:35:39.000Z,1014.89
2023-08-31T09:36:38.000Z,1014.83
2023-08-31T09:37:38.000Z,1014.90
2023-08-31T09:38:42.000Z,1014.87
2023-08-31T09:39:39.000Z,1014.85
2023-08-31T09:40:38.000Z,1014.85
2023-08-31T09:41:48.000Z,1014.89
2023-08-31T09:42:38.000Z,1014.88
2023-08-31T09:43:38.000Z,1014.86
2023-08-31T09:44:48.000Z,1014.86
2023-08-31T09:45:39.000Z,1014.89
2023-08-31T09:46:39.000Z,1014.82
2023-08-31T09:47:39.000Z,1014.81
2023-08-31T09:48:40.000Z,1014.83
2023-08-31T09:49:40.000Z,1014.81
2023-08-31T09:50:40.000Z,1014.83
2023-08-31T09:51:43.000Z,1014.86
2023-08-31T09:52:39.000Z,1014.87
2023-08-31T09:53:41.000Z,1014.90
2023-08-31T09:54:41.000Z,1014.91
2023-08-31T09:55:39.000Z,1014.91
2023-08-31T09:56:41.000Z,1014.89
2023-08-31T09:57:39.000Z,1014.92
2023-08-31T09:58:38.000Z,1014.86
2023-08-31T09:59:39.000Z,1014.90
2023-08-31T10:00:39.000Z,1014.90
2023-08-31T10:01:39.000Z,1014.87
2023-08-31T10:02:38.000Z,1014.82
2023-08-31T10:03:39.000Z,1014.82
2023-08-31T10:04:39.000Z,1014.81
2023-08-31T10:05:39.000Z,1014.86
2023-08-31T10:06:39.000Z,1014.84
2023-08-31T10:07:39.000Z,1014.81
2023-08-31T10:08:41.000Z,1014.81
2023-08-31T10:09:39.000Z,1014.80
2023-08-31T10:10:39.000Z,1014.76
2023-08-31T10:11:41.000Z,1014.78
2023-08-31T10:12:39.000Z,1014.80
2023-08-31T10:13:42.000Z,1014.80
2023-08-31T10:14:39.000Z,1014.82
2023-08-31T10:15:42.000Z,1014.86
2023-08-31T10:16:40.000Z,1014.87
2023-08-31T10:17:40.000Z,1014.90
2023-08-31T10:18:39.000Z,1014.88
2023-08-31T10:19:39.000Z,1014.89
2023-08-31T10:20:42.000Z,1014.86
2023-08-31T10:21:40.000Z,1014.89
2023-08-31T10:22:39.000Z,1014.87
2023-08-31T10:23:53.000Z,1014.90
2023-08-31T10:24:49.000Z,1014.84
2023-08-31T10:25:49.000Z,1014.89
2023-08-31T10:26:39.000Z,1014.88
2023-08-31T10:27:41.000Z,1014.90
2023-08-31T10:28:42.000Z,1014.88
2023-08-31T10:29:39.000Z,1014.90
2023-08-31T10:30:39.000Z,1014.86
2023-08-31T10:31:39.000Z,1014.81
2023-08-31T10:32:39.000Z,1014.83
2023-08-31T10:34:02.000Z,1014.80
2023-08-31T10:34:39.000Z,1014.81
2023-08-31T10:35:51.000Z,1014.77
2023-08-31T10:36:50.000Z,1014.75
2023-08-31T10:37:39.000Z,1014.75
2023-08-31T10:38:39.000Z,1014.80
2023-08-31T10:39:39.000Z,1014.78
2023-08-31T10:40:39.000Z,1014.81
2023-08-31T10:41:39.000Z,1014.78
2023-08-31T10:42:44.000Z,1014.82
2023-08-31T10:43:49.000Z,1014.76
2023-08-31T10:44:41.000Z,1014.78
2023-08-31T10:45:44.000Z,1014.77
2023-08-31T10:46:42.000Z,1014.79
2023-08-31T10:47:42.000Z,1014.80
2023-08-31T10:48:58.000Z,1014.76
2023-08-31T10:49:50.000Z,1014.75
2023-08-31T10:50:41.000Z,1014.75
2023-08-31T10:51:55.000Z,1014.77
2023-08-31T10:52:43.000Z,1014.73
2023-08-31T10:53:39.000Z,1014.70
2023-08-31T10:54:39.000Z,1014.68
2023-08-31T10:55:49.000Z,1014.68
2023-08-31T10:56:49.000Z,1014.67
2023-08-31T10:57:40.000Z,1014.71
2023-08-31T10:58:39.000Z,1014.66
2023-08-31T10:59:56.000Z,1014.75
2023-08-31T11:00:50.000Z,1014.62
2023-08-31T11:01:49.000Z,1014.70
2023-08-31T11:02:43.000Z,1014.61
2023-08-31T11:03:49.000Z,1014.56
2023-08-31T11:04:49.000Z,1014.56
2023-08-31T11:05:50.000Z,1014.56
2023-08-31T11:06:39.000Z,1014.57
2023-08-31T11:07:41.000Z,1014.54
2023-08-31T11:08:38.000Z,1014.49
2023-08-31T11:09:38.000Z,1014.60
2023-08-31T11:10:44.000Z,1014.59
2023-08-31T11:11:38.000Z,1014.59
2023-08-31T11:12:40.000Z,1014.63
2023-08-31T11:13:38.000Z,1014.67
2023-08-31T11:14:38.000Z,1014.69
2023-08-31T11:15:46.000Z,1014.64
2023-08-31T11:16:38.000Z,1014.67
2023-08-31T11:17:40.000Z,1014.67
2023-08-31T11:18:38.000Z,1014.65
2023-08-31T11:19:39.000Z,1014.69
2023-08-31T11:20:38.000Z,1014.68
2023-08-31T11:21:39.000Z,1014.69
2023-08-31T11:22:40.000Z,1014.63
2023-08-31T11:23:39.000Z,1014.65
2023-08-31T11:24:39.000Z,1014.70
2023-08-31T11:25:38.000Z,1014.72
2023-08-31T11:26:38.000Z,1014.66
2023-08-31T11:27:38.000Z,1014.63
2023-08-31T11:28:42.000Z,1014.64
2023-08-31T11:29:43.000Z,1014.65
2023-08-31T11:30:40.000Z,1014.59
2023-08-31T11:31:39.000Z,1014.64
2023-08-31T11:32:44.000Z,1014.64
2023-08-31T11:33:38.000Z,1014.65
2023-08-31T11:34:43.000Z,1014.69
2023-08-31T11:35:42.000Z,1014.63
2023-08-31T11:36:45.000Z,1014.68
2023-08-31T11:37:40.000Z,1014.66
2023-08-31T11:38:39.000Z,1014.66
2023-08-31T11:39:40.000Z,1014.68
2023-08-31T11:40:39.000Z,1014.63
2023-08-31T11:41:42.000Z,1014.65
2023-08-31T11:42:39.000Z,1014.67
2023-08-31T11:43:39.000Z,1014.62
2023-08-31T11:44:39.000Z,1014.67
2023-08-31T11:45:39.000Z,1014.64
2023-08-31T11:46:43.000Z,1014.71
2023-08-31T11:47:41.000Z,1014.62
2023-08-31T11:48:40.000Z,1014.70
2023-08-31T11:49:41.000Z,1014.69
2023-08-31T11:50:40.000Z,1014.62
2023-08-31T11:51:40.000Z,1014.67
2023-08-31T11:52:39.000Z,1014.72
2023-08-31T11:53:39.000Z,1014.66
2023-08-31T11:54:42.000Z,1014.64
2023-08-31T11:55:49.000Z,1014.59
2023-08-31T11:56:43.000Z,1014.59
2023-08-31T11:57:39.000Z,1014.60
2023-08-31T11:58:41.000Z,1014.61
2023-08-31T11:59:40.000Z,1014.59
2023-08-31T12:00:39.000Z,1014.57
2023-08-31T12:01:43.000Z,1014.55
2023-08-31T12:02:39.000Z,1014.59
2023-08-31T12:03:43.000Z,1014.55
2023-08-31T12:04:44.000Z,1014.60
2023-08-31T12:05:47.000Z,1014.61